Green Island, NY (12183)

12:03 AM EDT on April 02, 2015 (GMT -0400)
South Troy | | Change Station
CLOSE
Current Station
Personal Weather Station
Location: Troy, NY
Elevation: 102 ft
Nearby Weather Stations

Elev 102 ft 42.72 °N, 73.69 °W | Updated 40 seconds ago

Clear
Clear
28.0 °F
Feels Like 28 °F
N
1.6
Wind Variable Wind from SE
Gusts 1.6 mph

Today
High -- | Low -- °F
--% Chance of Precip.
Yesterday
High -- | Low -- °F
Precip. -- in
6:35 AM 7:21 PM
Waxing Gibbous, 95% visible
Pressure 30.20 in
Visibility 10.0 miles
Clouds Scattered Clouds 26000 ft
Windchill 28 °F
Dew Point 20 °F
Humidity 73%
Rainfall 0.00 in
Snow Depth Not available.
UV 0 out of 12
Pollen 4.50 out of 12
Air Quality Not available.
Flu Activity Not available.
METAR KALB 020351Z 00000KT 10SM SCT260 M02/M14 A3019 RMK AO2 SLP227 T10221139

More Conditions Fewer Conditions

Pressure 30.20 in
Visibility 10.0 miles
Clouds Scattered Clouds 26000 ft
Windchill 28 °F
Dew Point 20 °F
Humidity 73%
Rainfall 0.00 in
Snow Depth Not available.
UV 0 out of 12
Pollen 4.50 out of 12
Air Quality Not available.
Flu Activity Not available.
METAR KALB 020351Z 00000KT 10SM SCT260 M02/M14 A3019 RMK AO2 SLP227 T10221139

More Conditions Fewer Conditions

10-Day Weather Forecast

Almanac

Astronomy

Apr. 02, 2015 Rise Set
Actual Time
Civil Twilight
Nautical Twilight
Astronomical Twilight
Moon
Length of Visible Light
Length of Day
Tomorrow will be .
, % of the Moon is Illuminated

Today's Extremes

State Highs State Lows

Community

WunderPhotos

Upload Photos

1,810,188 photos uploaded!

WunderBlogs® & News

Nearby

Air Quality

  Air Quality AQ Index Pollutant
Not available.

Snow Depth

Station Depth Elevation

Earthquake Activity

City Distance Mag. Time & Date
Minimum magnitude displayed is 2.5.

Coastal Water Temperatures

Place Temperature

Stations

Nearby Weather Stations

Station Location Temp. Windchill Dew Point Humidity Wind Precip. Elev Updated Type